Time;durP1;ratioP1;P1;durP2;ratioP2;P2;SDS_P1;SDS_P2;PMS_P1;PMS_P2;Temp;Humidity;BMP_temperature;BMP_pressure;BME280_temperature;BME280_humidity;BME280_pressure;Samples;Min_cycle;Max_cycle;Signal;HPM_P1;HPM_P2
2023/11/16 00:01:13;;;;;;;;;;;;;;;14.30;nan;101369.84;5032350;28;20008;-88
2023/11/16 00:03:39;;;;;;;;;;;;;;;14.26;nan;101357.94;5049960;28;19929;-89
2023/11/16 00:06:04;;;;;;;;;;;;;;;14.23;nan;101356.59;5046715;28;19980;-89
2023/11/16 00:08:30;;;;;;;;;;;;;;;14.28;nan;101358.50;5049529;28;19923;-88
2023/11/16 00:10:56;;;;;;;;;;;;;;;14.32;nan;101355.03;5042544;28;19999;-88
2023/11/16 00:13:22;;;;;;;;;;;;;;;14.37;nan;101357.78;5051087;28;19925;-89
2023/11/16 00:15:47;;;;;;;;;;;;;;;14.40;nan;101359.16;5048282;28;19939;-89
2023/11/16 00:18:13;;;;;;;;;;;;;;;14.40;nan;101354.56;5044121;28;19979;-89
2023/11/16 00:20:39;;;;;;;;;;;;;;;14.39;nan;101352.94;5044418;28;19921;-89
2023/11/16 00:23:04;;;;;;;;;;;;;;;14.39;nan;101352.13;5047598;28;20369;-88
2023/11/16 00:25:31;;;;;;;;;;;;;;;14.38;nan;101350.50;5023701;28;19917;-88
2023/11/16 00:27:59;;;;;;;;;;;;;;;14.37;nan;101351.59;5047100;28;19999;-88
2023/11/16 00:30:24;;;;;;;;;;;;;;;14.37;nan;101352.41;5047109;28;19923;-89
2023/11/16 00:32:51;;;;;;;;;;;;;;;14.38;nan;101345.94;5049416;28;20183;-89
2023/11/16 00:35:17;;;;;;;;;;;;;;;14.41;nan;101352.69;5048387;28;20011;-88
2023/11/16 00:37:43;;;;;;;;;;;;;;;14.42;nan;101343.53;5046365;28;19916;-89
2023/11/16 00:40:10;;;;;;;;;;;;;;;14.40;nan;101342.97;5047705;28;19924;-88
2023/11/16 00:42:36;;;;;;;;;;;;;;;14.36;nan;101333.75;5049824;28;19928;-88
2023/11/16 00:45:02;;;;;;;;;;;;;;;14.38;nan;101337.84;5044186;28;20426;-88
2023/11/16 00:47:29;;;;;;;;;;;;;;;14.37;nan;101322.75;5040617;28;19929;-89
2023/11/16 00:49:55;;;;;;;;;;;;;;;14.38;nan;101318.16;5048298;28;19975;-89
2023/11/16 00:52:20;;;;;;;;;;;;;;;14.36;nan;101322.97;5046046;28;19917;-89
2023/11/16 00:54:48;;;;;;;;;;;;;;;14.32;nan;101321.88;5046555;28;19940;-88
2023/11/16 00:57:14;;;;;;;;;;;;;;;14.30;nan;101314.03;5042379;28;19925;-88
2023/11/16 00:59:41;;;;;;;;;;;;;;;14.28;nan;101307.28;5051578;28;20373;-88
2023/11/16 01:02:08;;;;;;;;;;;;;;;14.29;nan;101309.72;5046148;28;19917;-89
2023/11/16 01:04:34;;;;;;;;;;;;;;;14.27;nan;101311.06;5050188;28;19917;-89
2023/11/16 01:07:00;;;;;;;;;;;;;;;14.21;nan;101315.63;5049515;28;19959;-89
2023/11/16 01:09:25;;;;;;;;;;;;;;;14.18;nan;101311.56;5048484;28;19956;-89
2023/11/16 01:11:50;;;;;;;;;;;;;;;14.14;nan;101305.03;5031778;28;20291;-89
2023/11/16 01:14:16;;;;;;;;;;;;;;;14.12;nan;101309.88;5047290;28;20632;-89
2023/11/16 01:16:44;;;;;;;;;;;;;;;14.10;nan;101305.81;5050375;28;19925;-90
2023/11/16 01:19:09;;;;;;;;;;;;;;;14.08;nan;101307.97;5047994;28;19921;-87
2023/11/16 01:21:44;;;;;;;;;;;;;;;14.06;nan;101308.22;5051734;28;20385;-89
2023/11/16 01:24:09;;;;;;;;;;;;;;;14.08;nan;101307.97;5048121;28;19952;-89
2023/11/16 01:26:36;;;;;;;;;;;;;;;14.09;nan;101313.09;5051745;28;20810;-89
2023/11/16 01:29:08;;;;;;;;;;;;;;;14.08;nan;101305.25;5044567;28;19921;-89
2023/11/16 01:31:34;;;;;;;;;;;;;;;14.07;nan;101293.69;5047146;28;19924;-88
2023/11/16 01:33:59;;;;;;;;;;;;;;;14.07;nan;101293.69;5043305;28;19939;-89
2023/11/16 01:36:25;;;;;;;;;;;;;;;14.06;nan;101292.06;5048437;28;20305;-87
2023/11/16 01:38:51;;;;;;;;;;;;;;;14.02;nan;101299.03;5048147;28;20384;-88
2023/11/16 01:41:16;;;;;;;;;;;;;;;14.00;nan;101294.94;5041570;28;19931;-87
2023/11/16 01:43:42;;;;;;;;;;;;;;;14.00;nan;101292.25;5042688;28;20286;-87
2023/11/16 01:46:09;;;;;;;;;;;;;;;13.95;nan;101301.09;5046584;28;19928;-88
2023/11/16 01:48:35;;;;;;;;;;;;;;;13.84;nan;101294.03;5043345;28;20375;-87
2023/11/16 01:51:05;;;;;;;;;;;;;;;13.75;nan;101279.38;5045045;28;19923;-88
2023/11/16 01:53:41;;;;;;;;;;;;;;;13.73;nan;101279.66;5046194;28;19997;-88
2023/11/16 01:56:08;;;;;;;;;;;;;;;13.68;nan;101276.09;5046652;28;20388;-88
2023/11/16 01:58:33;;;;;;;;;;;;;;;13.66;nan;101275.56;5046852;28;19924;-88
2023/11/16 02:01:00;;;;;;;;;;;;;;;13.68;nan;101270.72;5039895;28;19925;-87
2023/11/16 02:03:26;;;;;;;;;;;;;;;13.70;nan;101266.69;5043681;28;19917;-88
2023/11/16 02:05:51;;;;;;;;;;;;;;;13.74;nan;101269.69;5041176;28;19917;-88
2023/11/16 02:08:16;;;;;;;;;;;;;;;13.75;nan;101265.94;5045652;28;19928;-88
2023/11/16 02:10:42;;;;;;;;;;;;;;;13.76;nan;101256.78;5042322;28;20511;-87
2023/11/16 02:13:17;;;;;;;;;;;;;;;13.78;nan;101260.03;5039628;28;20015;-87
2023/11/16 02:15:44;;;;;;;;;;;;;;;13.83;nan;101252.00;5043541;28;19927;-88
2023/11/16 02:18:13;;;;;;;;;;;;;;;13.86;nan;101254.19;5046126;28;19932;-88
2023/11/16 02:20:40;;;;;;;;;;;;;;;13.89;nan;101249.09;5049152;28;19928;-88
2023/11/16 02:23:05;;;;;;;;;;;;;;;13.91;nan;101248.81;5040994;28;20047;-88
2023/11/16 02:25:41;;;;;;;;;;;;;;;13.87;nan;101256.63;5040778;28;20436;-88
2023/11/16 02:28:07;;;;;;;;;;;;;;;13.85;nan;101249.88;5040761;28;19917;-88
2023/11/16 02:30:32;;;;;;;;;;;;;;;13.83;nan;101249.31;5045567;28;20419;-88
2023/11/16 02:32:57;;;;;;;;;;;;;;;13.79;nan;101248.19;5039572;28;20323;-88
2023/11/16 02:35:23;;;;;;;;;;;;;;;13.78;nan;101241.16;5032159;28;19971;-87
2023/11/16 02:37:48;;;;;;;;;;;;;;;13.71;nan;101240.59;5047486;28;20375;-88
2023/11/16 02:40:16;;;;;;;;;;;;;;;13.71;nan;101246.78;5044014;28;19928;-88
2023/11/16 02:42:41;;;;;;;;;;;;;;;13.70;nan;101241.66;5046785;28;19920;-88
2023/11/16 02:45:07;;;;;;;;;;;;;;;13.68;nan;101235.72;5041776;28;19920;-89
2023/11/16 02:47:32;;;;;;;;;;;;;;;13.68;nan;101223.06;5044237;28;19921;-89
2023/11/16 02:49:57;;;;;;;;;;;;;;;13.68;nan;101223.06;5044253;28;20015;-88
2023/11/16 02:52:23;;;;;;;;;;;;;;;13.67;nan;101221.44;5039579;28;19917;-88
2023/11/16 02:54:48;;;;;;;;;;;;;;;13.70;nan;101212.03;5038435;28;19917;-87
2023/11/16 02:57:14;;;;;;;;;;;;;;;13.74;nan;101213.94;5042022;28;19979;-87
2023/11/16 02:59:39;;;;;;;;;;;;;;;13.75;nan;101215.56;5044100;28;19920;-88
2023/11/16 03:02:07;;;;;;;;;;;;;;;13.79;nan;101218.56;5028619;28;19917;-88
2023/11/16 03:04:33;;;;;;;;;;;;;;;13.85;nan;101215.66;5047219;28;19924;-88
2023/11/16 03:06:58;;;;;;;;;;;;;;;13.90;nan;101218.38;5042137;28;19964;-88
2023/11/16 03:09:23;;;;;;;;;;;;;;;13.96;nan;101215.72;5045024;28;19917;-88
2023/11/16 03:11:48;;;;;;;;;;;;;;;13.95;nan;101217.59;5047121;28;19928;-88
2023/11/16 03:14:14;;;;;;;;;;;;;;;13.91;nan;101216.50;5041003;28;19917;-88
2023/11/16 03:16:43;;;;;;;;;;;;;;;13.90;nan;101214.88;5046555;28;19932;-87
2023/11/16 03:19:09;;;;;;;;;;;;;;;13.88;nan;101212.44;5038446;28;20438;-88
2023/11/16 03:21:34;;;;;;;;;;;;;;;13.91;nan;101213.81;5042334;28;19921;-88
2023/11/16 03:23:59;;;;;;;;;;;;;;;13.96;nan;101211.13;5039827;28;19917;-88
2023/11/16 03:26:25;;;;;;;;;;;;;;;14.00;nan;101219.50;5042421;28;20460;-88
2023/11/16 03:28:50;;;;;;;;;;;;;;;14.00;nan;101209.53;5033845;28;20059;-88
2023/11/16 03:31:15;;;;;;;;;;;;;;;14.00;nan;101198.75;5037919;28;19925;-88
2023/11/16 03:33:41;;;;;;;;;;;;;;;14.05;nan;101203.41;5043931;28;19924;-87
2023/11/16 03:36:06;;;;;;;;;;;;;;;14.00;nan;101201.47;5036504;28;20415;-88
2023/11/16 03:38:34;;;;;;;;;;;;;;;13.98;nan;101200.91;5041639;28;20309;-87
2023/11/16 03:41:00;;;;;;;;;;;;;;;13.96;nan;101191.47;5043192;28;19948;-89
2023/11/16 03:43:25;;;;;;;;;;;;;;;13.90;nan;101194.13;5039661;28;20640;-88
2023/11/16 03:45:51;;;;;;;;;;;;;;;13.91;nan;101193.06;5038730;28;19924;-87
2023/11/16 03:48:16;;;;;;;;;;;;;;;13.90;nan;101191.44;5039548;28;19917;-87
2023/11/16 03:50:41;;;;;;;;;;;;;;;13.94;nan;101191.72;5045176;28;19921;-88
2023/11/16 03:53:07;;;;;;;;;;;;;;;14.01;nan;101194.22;5042953;28;20595;-88
2023/11/16 03:55:32;;;;;;;;;;;;;;;14.03;nan;101182.09;5039230;28;20391;-87
2023/11/16 03:57:57;;;;;;;;;;;;;;;14.02;nan;101183.19;5043367;28;19920;-88
2023/11/16 04:00:25;;;;;;;;;;;;;;;14.00;nan;101179.91;5037556;28;20460;-88
2023/11/16 04:02:51;;;;;;;;;;;;;;;14.01;nan;101184.25;5039038;28;20587;-90
2023/11/16 04:05:18;;;;;;;;;;;;;;;13.99;nan;101182.88;5044254;28;19948;-87
2023/11/16 04:07:43;;;;;;;;;;;;;;;13.99;nan;101178.28;5041253;28;19917;-86
2023/11/16 04:10:12;;;;;;;;;;;;;;;14.03;nan;101179.41;5039929;28;19923;-88
2023/11/16 04:12:39;;;;;;;;;;;;;;;13.99;nan;101172.91;5041962;28;19924;-88
2023/11/16 04:15:05;;;;;;;;;;;;;;;13.99;nan;101172.09;5035241;28;19955;-87
2023/11/16 04:17:31;;;;;;;;;;;;;;;13.95;nan;101168.28;5036077;28;19917;-87
2023/11/16 04:19:57;;;;;;;;;;;;;;;13.95;nan;101166.41;5044577;28;19932;-88
2023/11/16 04:22:22;;;;;;;;;;;;;;;13.92;nan;101158.84;5038753;28;19929;-87
2023/11/16 04:24:51;;;;;;;;;;;;;;;13.96;nan;101151.06;5041416;28;19920;-88
2023/11/16 04:27:17;;;;;;;;;;;;;;;13.97;nan;101142.72;5034726;28;19923;-88
2023/11/16 04:29:45;;;;;;;;;;;;;;;13.98;nan;101148.91;5034421;28;19925;-88
2023/11/16 04:32:11;;;;;;;;;;;;;;;13.94;nan;101143.25;5036734;28;20266;-88
2023/11/16 04:34:37;;;;;;;;;;;;;;;13.96;nan;101141.09;5027142;28;19917;-87
2023/11/16 04:37:04;;;;;;;;;;;;;;;14.00;nan;101136.81;5032788;28;20470;-87
2023/11/16 04:39:30;;;;;;;;;;;;;;;14.02;nan;101139.25;5042984;28;19921;-88
2023/11/16 04:41:55;;;;;;;;;;;;;;;14.03;nan;101140.88;5038698;28;20103;-87
2023/11/16 04:44:20;;;;;;;;;;;;;;;14.04;nan;101139.81;5037752;28;19924;-87
2023/11/16 04:46:47;;;;;;;;;;;;;;;14.06;nan;101135.78;5041702;28;19925;-88
2023/11/16 04:49:13;;;;;;;;;;;;;;;14.02;nan;101132.00;5028827;28;20193;-88
2023/11/16 04:51:40;;;;;;;;;;;;;;;14.04;nan;101135.22;5035182;28;20311;-87
2023/11/16 04:54:06;;;;;;;;;;;;;;;14.02;nan;101125.78;5034970;28;19921;-87
2023/11/16 04:56:31;;;;;;;;;;;;;;;14.03;nan;101122.03;5036763;28;20729;-88
2023/11/16 04:58:56;;;;;;;;;;;;;;;14.04;nan;101126.34;5043953;28;19917;-88
2023/11/16 05:01:23;;;;;;;;;;;;;;;14.01;nan;101124.16;5047018;28;20012;-89
2023/11/16 05:03:48;;;;;;;;;;;;;;;14.01;nan;101114.22;5043034;28;20336;-87
2023/11/16 05:06:14;;;;;;;;;;;;;;;14.01;nan;101111.50;5039150;28;19925;-87
2023/11/16 05:08:40;;;;;;;;;;;;;;;14.01;nan;101110.69;5045018;28;19917;-87
2023/11/16 05:11:05;;;;;;;;;;;;;;;13.99;nan;101107.44;5047499;28;19917;-88
2023/11/16 05:13:32;;;;;;;;;;;;;;;13.99;nan;101105.53;5046707;28;19935;-88
2023/11/16 05:15:58;;;;;;;;;;;;;;;13.98;nan;101106.63;5049138;28;19923;-88
2023/11/16 05:18:23;;;;;;;;;;;;;;;13.99;nan;101100.16;5044368;28;19917;-88
2023/11/16 05:20:48;;;;;;;;;;;;;;;13.99;nan;101102.03;5038419;28;19921;-88
2023/11/16 05:23:14;;;;;;;;;;;;;;;13.99;nan;101097.47;5037844;28;19920;-87
2023/11/16 05:25:39;;;;;;;;;;;;;;;14.01;nan;101100.72;5042916;28;19956;-87
2023/11/16 05:28:06;;;;;;;;;;;;;;;14.03;nan;101098.59;5044502;28;19914;-90
2023/11/16 05:30:33;;;;;;;;;;;;;;;13.99;nan;101092.06;5051559;28;20423;-88
2023/11/16 05:32:59;;;;;;;;;;;;;;;13.97;nan;101096.91;5032544;28;19917;-88
2023/11/16 05:35:25;;;;;;;;;;;;;;;13.99;nan;101088.56;5034112;28;19917;-87
2023/11/16 05:37:50;;;;;;;;;;;;;;;13.98;nan;101089.66;5044223;28;19913;-89
2023/11/16 05:40:16;;;;;;;;;;;;;;;13.92;nan;101088.81;5041422;28;20012;-86
2023/11/16 05:42:41;;;;;;;;;;;;;;;13.90;nan;101085.59;5038559;28;19921;-87
2023/11/16 05:45:07;;;;;;;;;;;;;;;13.93;nan;101093.13;5029462;28;19923;-88
2023/11/16 05:47:33;;;;;;;;;;;;;;;13.93;nan;101093.13;5044923;28;19928;-88
2023/11/16 05:49:58;;;;;;;;;;;;;;;13.93;nan;101084.25;5046011;28;19913;-89
2023/11/16 05:52:23;;;;;;;;;;;;;;;13.89;nan;101082.06;5042893;28;19952;-89
2023/11/16 05:54:49;;;;;;;;;;;;;;;13.83;nan;101082.31;5045649;28;20003;-88
2023/11/16 05:57:14;;;;;;;;;;;;;;;13.80;nan;101080.13;5037106;28;19917;-88
2023/11/16 05:59:40;;;;;;;;;;;;;;;13.81;nan;101077.16;5050007;28;19939;-88
2023/11/16 06:02:05;;;;;;;;;;;;;;;13.76;nan;101074.47;5042678;28;20416;-88
2023/11/16 06:04:31;;;;;;;;;;;;;;;13.77;nan;101072.56;5042377;28;19932;-88
2023/11/16 06:06:56;;;;;;;;;;;;;;;13.70;nan;101070.13;5042098;28;19917;-88
2023/11/16 06:09:21;;;;;;;;;;;;;;;13.64;nan;101073.84;5045888;28;20209;-88
2023/11/16 06:11:46;;;;;;;;;;;;;;;13.62;nan;101073.28;5037354;28;19924;-88
2023/11/16 06:14:12;;;;;;;;;;;;;;;13.64;nan;101081.09;5041266;28;19925;-88
2023/11/16 06:16:43;;;;;;;;;;;;;;;13.54;nan;101074.59;5041169;28;19917;-88
2023/11/16 06:19:09;;;;;;;;;;;;;;;13.51;nan;101079.72;5048024;28;19948;-89
2023/11/16 06:21:34;;;;;;;;;;;;;;;13.51;nan;101066.25;5047292;28;19964;-88
2023/11/16 06:23:59;;;;;;;;;;;;;;;13.49;nan;101060.31;5040463;28;20024;-89
2023/11/16 06:26:27;;;;;;;;;;;;;;;13.49;nan;101055.75;5045243;28;19923;-89
2023/11/16 06:28:52;;;;;;;;;;;;;;;13.48;nan;101056.81;5045095;28;19927;-89
2023/11/16 06:31:19;;;;;;;;;;;;;;;13.49;nan;101055.75;5045311;28;20012;-88
2023/11/16 06:33:44;;;;;;;;;;;;;;;13.46;nan;101055.41;5046890;28;19999;-89
2023/11/16 06:36:09;;;;;;;;;;;;;;;13.44;nan;101055.69;5044704;28;20648;-88
2023/11/16 06:38:35;;;;;;;;;;;;;;;13.40;nan;101059.97;5044157;28;20198;-89
2023/11/16 06:41:00;;;;;;;;;;;;;;;13.38;nan;101054.03;5040758;28;19928;-89
2023/11/16 06:43:26;;;;;;;;;;;;;;;13.36;nan;101045.41;5039444;28;19921;-89
2023/11/16 06:45:51;;;;;;;;;;;;;;;13.34;nan;101044.88;5047633;28;20581;-89
2023/11/16 06:48:17;;;;;;;;;;;;;;;13.33;nan;101045.94;5052208;28;20537;-89
2023/11/16 06:50:42;;;;;;;;;;;;;;;13.27;nan;101049.66;5046345;28;19998;-88
2023/11/16 06:53:09;;;;;;;;;;;;;;;13.33;nan;101040.56;5049787;28;20825;-89
2023/11/16 06:55:43;;;;;;;;;;;;;;;13.42;nan;101044.38;5048329;28;20384;-89
2023/11/16 06:58:08;;;;;;;;;;;;;;;13.45;nan;101043.84;5047225;28;19916;-89
2023/11/16 07:00:36;;;;;;;;;;;;;;;13.44;nan;101036.84;5040539;28;19968;-89
2023/11/16 07:03:05;;;;;;;;;;;;;;;13.45;nan;101034.97;5042835;28;19917;-89
2023/11/16 07:05:32;;;;;;;;;;;;;;;13.41;nan;101034.69;5047789;28;19916;-89
2023/11/16 07:07:57;;;;;;;;;;;;;;;13.43;nan;101035.22;5047620;28;20388;-89
2023/11/16 07:10:23;;;;;;;;;;;;;;;13.42;nan;101025.53;5033614;28;19924;-89
2023/11/16 07:12:48;;;;;;;;;;;;;;;13.42;nan;101027.41;5031703;28;19994;-89
2023/11/16 07:15:14;;;;;;;;;;;;;;;13.42;nan;101030.91;5041776;28;20388;-87
2023/11/16 07:17:40;;;;;;;;;;;;;;;13.48;nan;101031.78;5046359;28;19923;-89
2023/11/16 07:20:08;;;;;;;;;;;;;;;13.43;nan;101029.84;5043977;28;19923;-89
2023/11/16 07:22:35;;;;;;;;;;;;;;;13.39;nan;101036.00;5043844;28;19921;-88
2023/11/16 07:25:02;;;;;;;;;;;;;;;13.42;nan;101028.22;5045815;28;19923;-89
2023/11/16 07:27:28;;;;;;;;;;;;;;;13.41;nan;101036.56;5031548;28;19976;-89
2023/11/16 07:29:53;;;;;;;;;;;;;;;13.38;nan;101037.88;5049403;28;19960;-89
2023/11/16 07:32:20;;;;;;;;;;;;;;;13.45;nan;101032.28;5042470;28;19923;-89
2023/11/16 07:34:45;;;;;;;;;;;;;;;13.45;nan;101030.38;5051299;28;19917;-89
2023/11/16 07:37:12;;;;;;;;;;;;;;;13.44;nan;101039.53;5033222;28;19997;-89
2023/11/16 07:39:37;;;;;;;;;;;;;;;13.45;nan;101033.09;5046267;28;19987;-90
2023/11/16 07:42:03;;;;;;;;;;;;;;;13.50;nan;101029.63;5049076;28;19920;-90
2023/11/16 07:44:28;;;;;;;;;;;;;;;13.49;nan;101046.84;5043377;28;19916;-89
2023/11/16 07:46:54;;;;;;;;;;;;;;;13.43;nan;101032.53;5039198;28;19920;-90
2023/11/16 07:49:19;;;;;;;;;;;;;;;13.45;nan;101037.66;5049174;28;19920;-90
2023/11/16 07:51:45;;;;;;;;;;;;;;;13.47;nan;101030.97;5050223;28;19982;-89
2023/11/16 07:54:11;;;;;;;;;;;;;;;13.51;nan;101026.69;5031245;28;19917;-89
2023/11/16 07:56:38;;;;;;;;;;;;;;;13.52;nan;101031.00;5050879;28;20373;-89
2023/11/16 07:59:03;;;;;;;;;;;;;;;13.52;nan;101022.09;5048675;28;19932;-90
2023/11/16 08:01:38;;;;;;;;;;;;;;;13.59;nan;101031.56;5050357;28;20422;-89
2023/11/16 08:04:04;;;;;;;;;;;;;;;13.63;nan;101023.75;5033273;28;20027;-89
2023/11/16 08:06:31;;;;;;;;;;;;;;;13.60;nan;101013.50;5047449;28;19952;-88
2023/11/16 08:08:56;;;;;;;;;;;;;;;13.65;nan;101024.34;5048472;28;20365;-90
2023/11/16 08:11:22;;;;;;;;;;;;;;;13.71;nan;101011.69;5048942;28;19916;-89
2023/11/16 08:13:47;;;;;;;;;;;;;;;13.76;nan;101009.03;5050586;28;19963;-89
2023/11/16 08:16:18;;;;;;;;;;;;;;;13.81;nan;101011.72;5051588;28;20543;-89
2023/11/16 08:18:43;;;;;;;;;;;;;;;13.78;nan;101004.97;5055284;28;19916;-90
2023/11/16 08:21:10;;;;;;;;;;;;;;;13.79;nan;101003.91;5054337;28;19975;-90
2023/11/16 08:23:38;;;;;;;;;;;;;;;13.84;nan;101003.16;5047521;28;19917;-89
2023/11/16 08:26:08;;;;;;;;;;;;;;;13.90;nan;100999.38;5036136;28;19913;-90
2023/11/16 08:28:34;;;;;;;;;;;;;;;13.90;nan;101012.84;5049024;28;19920;-89
2023/11/16 08:30:59;;;;;;;;;;;;;;;13.88;nan;101009.63;5054214;28;19913;-89
2023/11/16 08:33:29;;;;;;;;;;;;;;;13.91;nan;101009.09;5049655;28;19925;-91
2023/11/16 08:35:55;;;;;;;;;;;;;;;13.94;nan;101008.56;5052411;28;19923;-90
2023/11/16 08:38:25;;;;;;;;;;;;;;;13.95;nan;101017.44;5046238;28;19917;-88
2023/11/16 08:40:52;;;;;;;;;;;;;;;13.95;nan;101004.78;5052476;28;19921;-90
2023/11/16 08:43:17;;;;;;;;;;;;;;;13.96;nan;101000.22;5052677;28;20418;-89
2023/11/16 08:45:45;;;;;;;;;;;;;;;13.85;nan;101000.19;5035875;28;20011;-89
2023/11/16 08:48:11;;;;;;;;;;;;;;;13.84;nan;100997.75;5049358;28;19917;-89
2023/11/16 08:50:37;;;;;;;;;;;;;;;13.90;nan;101005.59;5049445;28;20457;-90
2023/11/16 08:53:07;;;;;;;;;;;;;;;13.84;nan;101005.84;5047672;28;19916;-89
2023/11/16 08:55:33;;;;;;;;;;;;;;;13.89;nan;101006.66;5047402;28;19966;-90
2023/11/16 08:58:00;;;;;;;;;;;;;;;13.91;nan;101007.19;5051172;28;19971;-90
2023/11/16 09:00:33;;;;;;;;;;;;;;;13.96;nan;101003.72;5036359;28;20012;-89
2023/11/16 09:03:07;;;;;;;;;;;;;;;13.91;nan;101006.41;5053472;28;19916;-90
2023/11/16 09:05:35;;;;;;;;;;;;;;;13.86;nan;101006.38;5047854;28;20008;-89
2023/11/16 09:08:01;;;;;;;;;;;;;;;13.91;nan;101009.91;5053872;28;19916;-88
2023/11/16 09:10:27;;;;;;;;;;;;;;;13.96;nan;101003.72;5052930;28;19917;-89
2023/11/16 09:12:56;;;;;;;;;;;;;;;14.03;nan;101004.28;5047619;28;19975;-89
2023/11/16 09:15:22;;;;;;;;;;;;;;;14.03;nan;100992.72;5050797;28;19917;-89
2023/11/16 09:17:51;;;;;;;;;;;;;;;14.06;nan;100992.97;5050358;28;19974;-88
2023/11/16 09:20:20;;;;;;;;;;;;;;;14.09;nan;100997.03;5047813;28;19921;-90
2023/11/16 09:22:49;;;;;;;;;;;;;;;14.12;nan;100991.91;5053110;28;19917;-89
2023/11/16 09:25:23;;;;;;;;;;;;;;;14.05;nan;100998.63;5049977;28;19916;-89
2023/11/16 09:27:54;;;;;;;;;;;;;;;14.10;nan;101002.16;5051066;28;19917;-88
2023/11/16 09:30:24;;;;;;;;;;;;;;;14.15;nan;101006.72;5051793;28;19916;-90
2023/11/16 09:32:50;;;;;;;;;;;;;;;14.17;nan;100999.19;5050539;28;20405;-89
2023/11/16 09:35:16;;;;;;;;;;;;;;;14.19;nan;100992.50;5051643;28;19920;-88
2023/11/16 09:37:45;;;;;;;;;;;;;;;14.30;nan;101003.28;5050592;28;19928;-89
2023/11/16 09:40:12;;;;;;;;;;;;;;;14.29;nan;100999.78;5047761;28;19923;-88
2023/11/16 09:42:39;;;;;;;;;;;;;;;14.36;nan;100994.09;5043474;28;19917;-88
2023/11/16 09:45:09;;;;;;;;;;;;;;;14.40;nan;101000.59;5052588;28;20293;-87
2023/11/16 09:47:39;;;;;;;;;;;;;;;14.48;nan;100989.31;5051730;28;19948;-89
2023/11/16 09:50:08;;;;;;;;;;;;;;;14.57;nan;100990.41;5052491;28;19920;-88
2023/11/16 09:52:38;;;;;;;;;;;;;;;14.62;nan;100986.91;5050424;28;20323;-89
2023/11/16 09:55:06;;;;;;;;;;;;;;;14.68;nan;100985.81;5050901;28;19921;-89
2023/11/16 09:57:33;;;;;;;;;;;;;;;14.69;nan;100982.03;5050723;28;19917;-89
2023/11/16 10:00:02;;;;;;;;;;;;;;;14.68;nan;100970.44;5048145;28;19924;-90
2023/11/16 10:02:32;;;;;;;;;;;;;;;14.67;nan;100966.13;5050082;28;19952;-90
2023/11/16 10:05:01;;;;;;;;;;;;;;;14.71;nan;100967.22;5049478;28;19913;-88
2023/11/16 10:07:28;;;;;;;;;;;;;;;14.79;nan;100976.66;5046601;28;19995;-88
2023/11/16 10:09:57;;;;;;;;;;;;;;;14.77;nan;100965.34;5050444;28;19917;-88
2023/11/16 10:12:23;;;;;;;;;;;;;;;14.84;nan;100973.16;5032723;28;20459;-89
2023/11/16 10:14:51;;;;;;;;;;;;;;;14.88;nan;100968.81;5049517;28;19956;-88
2023/11/16 10:17:18;;;;;;;;;;;;;;;14.89;nan;100976.66;5045292;28;19917;-89
2023/11/16 10:19:43;;;;;;;;;;;;;;;14.97;nan;100980.69;5050363;28;19921;-88
2023/11/16 10:22:08;;;;;;;;;;;;;;;14.93;nan;100971.53;5045477;28;19929;-87
2023/11/16 10:24:35;;;;;;;;;;;;;;;14.98;nan;100969.63;5046047;28;20307;-88
2023/11/16 10:27:01;;;;;;;;;;;;;;;15.04;nan;100962.34;5044554;28;19917;-88
2023/11/16 10:29:26;;;;;;;;;;;;;;;15.08;nan;100966.94;5030275;28;19923;-88
2023/11/16 10:31:53;;;;;;;;;;;;;;;15.18;nan;100960.69;5047932;28;19927;-87
2023/11/16 10:34:21;;;;;;;;;;;;;;;15.20;nan;100961.22;5048018;28;19921;-88
2023/11/16 10:36:48;;;;;;;;;;;;;;;15.29;nan;100959.59;5049029;28;19971;-89
2023/11/16 10:39:14;;;;;;;;;;;;;;;15.35;nan;100958.50;5044429;28;19921;-87
2023/11/16 10:41:40;;;;;;;;;;;;;;;15.34;nan;100950.66;5033645;28;19928;-88
2023/11/16 10:44:06;;;;;;;;;;;;;;;15.30;nan;100960.41;5048207;28;19917;-88
2023/11/16 10:46:31;;;;;;;;;;;;;;;15.29;nan;100951.50;5047976;28;19917;-88
2023/11/16 10:48:57;;;;;;;;;;;;;;;15.27;nan;100966.34;5048449;28;19962;-89
2023/11/16 10:51:24;;;;;;;;;;;;;;;15.24;nan;100956.88;5034005;28;20381;-88
2023/11/16 10:53:52;;;;;;;;;;;;;;;15.18;nan;100947.19;5048264;28;19917;-88
2023/11/16 10:56:17;;;;;;;;;;;;;;;15.13;nan;100947.22;5043465;28;19967;-88
2023/11/16 10:58:44;;;;;;;;;;;;;;;15.13;nan;100944.53;5046321;28;19920;-88
2023/11/16 11:01:12;;;;;;;;;;;;;;;15.10;nan;100950.47;5032823;28;19929;-89
2023/11/16 11:03:42;;;;;;;;;;;;;;;15.04;nan;100960.44;5046246;28;20408;-88
2023/11/16 11:06:17;;;;;;;;;;;;;;;15.01;nan;100955.59;5046083;28;20105;-88
2023/11/16 11:08:43;;;;;;;;;;;;;;;15.06;nan;100954.78;5041097;28;19921;-86
2023/11/16 11:11:12;;;;;;;;;;;;;;;15.04;nan;100957.75;5049495;28;20431;-88
2023/11/16 11:13:43;;;;;;;;;;;;;;;15.01;nan;100968.28;5047141;28;19920;-87
2023/11/16 11:16:11;;;;;;;;;;;;;;;14.95;nan;100956.69;5049493;28;19921;-88
2023/11/16 11:18:45;;;;;;;;;;;;;;;14.96;nan;100962.91;5048396;28;19924;-88
2023/11/16 11:21:12;;;;;;;;;;;;;;;14.94;nan;100970.47;5039486;28;20024;-88
2023/11/16 11:23:38;;;;;;;;;;;;;;;14.94;nan;100962.38;5047036;28;19968;-89
2023/11/16 11:26:04;;;;;;;;;;;;;;;14.91;nan;100968.31;5048276;28;20431;-87
2023/11/16 11:28:30;;;;;;;;;;;;;;;14.95;nan;100974.78;5044034;28;19917;-88
2023/11/16 11:30:59;;;;;;;;;;;;;;;14.94;nan;100983.94;5031789;28;19996;-89
2023/11/16 11:33:37;;;;;;;;;;;;;;;14.90;nan;100977.44;5042900;28;19924;-87
2023/11/16 11:36:07;;;;;;;;;;;;;;;14.92;nan;100986.09;5041837;28;20381;-88
2023/11/16 11:38:33;;;;;;;;;;;;;;;14.96;nan;100976.38;5044222;28;20016;-88
2023/11/16 11:41:24;;;;;;;;;;;;;;;15.01;nan;100987.97;5046321;28;19921;-88
2023/11/16 11:43:48;;;;;;;;;;;;;;;15.04;nan;100973.94;5046457;28;19917;-88
2023/11/16 11:46:18;;;;;;;;;;;;;;;14.97;nan;100986.09;5030195;28;20434;-88
2023/11/16 11:48:44;;;;;;;;;;;;;;;14.87;nan;100983.38;5049445;28;19932;-88
2023/11/16 11:51:14;;;;;;;;;;;;;;;14.80;nan;100989.88;5045586;28;19925;-88
2023/11/16 11:53:40;;;;;;;;;;;;;;;14.78;nan;100985.84;5046245;28;20266;-88
2023/11/16 11:56:06;;;;;;;;;;;;;;;14.82;nan;100985.03;5045631;28;19959;-88
2023/11/16 11:58:32;;;;;;;;;;;;;;;14.84;nan;100984.75;5052361;28;19921;-89
2023/11/16 12:00:58;;;;;;;;;;;;;;;14.85;nan;100985.56;5052745;28;19921;-89
2023/11/16 12:03:24;;;;;;;;;;;;;;;14.84;nan;101000.13;5046650;28;20348;-88
2023/11/16 12:05:58;;;;;;;;;;;;;;;14.87;nan;100997.69;5049708;28;19917;-88
2023/11/16 12:08:24;;;;;;;;;;;;;;;14.90;nan;101004.44;5044632;28;19924;-88
2023/11/16 12:10:50;;;;;;;;;;;;;;;14.92;nan;100994.19;5051180;28;19979;-88
2023/11/16 12:13:17;;;;;;;;;;;;;;;14.90;nan;100993.63;5044799;28;19924;-88
2023/11/16 12:15:42;;;;;;;;;;;;;;;14.90;nan;100997.19;5033758;28;20443;-88
2023/11/16 12:18:10;;;;;;;;;;;;;;;14.91;nan;100992.59;5047858;28;19921;-88
2023/11/16 12:20:42;;;;;;;;;;;;;;;14.88;nan;100982.31;5044588;28;19924;-89
2023/11/16 12:23:08;;;;;;;;;;;;;;;14.84;nan;100984.75;5052304;28;20696;-88
2023/11/16 12:25:36;;;;;;;;;;;;;;;14.76;nan;100986.09;5036012;28;19971;-88
2023/11/16 12:28:04;;;;;;;;;;;;;;;14.66;nan;100983.41;5033195;28;19963;-87
2023/11/16 12:30:29;;;;;;;;;;;;;;;14.56;nan;100991.50;5046714;28;19956;-88
2023/11/16 12:32:55;;;;;;;;;;;;;;;14.61;nan;100991.50;5046438;28;19963;-89
2023/11/16 12:35:20;;;;;;;;;;;;;;;14.58;nan;100994.72;5042425;28;20292;-88
2023/11/16 12:37:45;;;;;;;;;;;;;;;14.55;nan;100987.19;5045579;28;19920;-88
2023/11/16 12:40:17;;;;;;;;;;;;;;;14.57;nan;100995.81;5046258;28;20431;-88
2023/11/16 12:42:44;;;;;;;;;;;;;;;14.56;nan;100988.00;5048266;28;19917;-87
2023/11/16 12:45:10;;;;;;;;;;;;;;;14.63;nan;100977.75;5043571;28;19920;-88
2023/11/16 12:47:37;;;;;;;;;;;;;;;14.53;nan;100975.84;5045089;28;19924;-88
2023/11/16 12:50:05;;;;;;;;;;;;;;;14.52;nan;100976.91;5048701;28;19996;-88
2023/11/16 12:52:32;;;;;;;;;;;;;;;14.62;nan;100968.03;5043352;28;20000;-87
2023/11/16 12:54:57;;;;;;;;;;;;;;;14.63;nan;100983.13;5043400;28;19913;-89